Deering Airport
PADE : now visible

Aeroporto :











RITROVATECI SU...

 
LOGIN :

Iscrizione | Disclaimer

   EN    FR    IT 

 









Sommario :    VFR   VFR Marginale   IFR   IFR Intensivo   IFR Molto Intensivo
Visibilità : 
Base nubi : 
>= 8 km
>= 3000ft
5 / 8 km
1000 / 3000 ft
1500m / 5 km
500 / 1000 ft
800 / 1500m
200 / 500 ft
< 800m
< 200 ft
Simboli :   Temporali  Nebbia  Neve Forte  Precipitazioni Forti  Vento > 20 kt






- Altitudine del aeroporto : 21 ft
- Codice IATA : DEE


PADE - Deering

ULTIMO METAR :
  • 072353Z AUTO 05006KT 10SM UP OVC027 M15/M17 A3004 RMK AO2 UPB2258 SLP173 P0000 60000 T11501172 11150 21228 58005 TSNO

METARs OBSOLETI :
  • 072253Z AUTO 06007KT 10SM OVC026 M16/M18 A3005 RMK AO2 SLP176 T11561178 TSNO
  • 072153Z AUTO 06005KT 10SM OVC024 M16/M18 A3005 RMK AO2 SLP177 T11611183 TSNO
  • 072143Z AUTO 07005KT 10SM BKN023 M16/M18 A3005 RMK AO2 T11561183 TSNO
  • 072053Z AUTO 00000KT 10SM CLR M17/M20 A3005 RMK AO2 SLP178 T11671200 51006 TSNO

TAF N/A



MetMap, La meteo Aeronautica in un colpo d'occhio ! - Copyright ORBIFLY Dicembre 2007 - Disclaimer

ORBIFLY MET'MAP TEAM :

Programmazione e sviluppo : Alexandra Zaïnal
Concezione : Baudouin d'Aumeries
Aiuto per la programmazione : Marc-Olivier Méhu
Supporto tecnico e logistico : Manuel Goepfert
Aiuto per la traduzione : Arnaldo La Scala

Contatto : metmap@orbifly.com




FONTI E CREDITI :

   NOAA       Earth
Advisory